sensor_id;sensor_type;location;lat;lon;timestamp;pressure;altitude;pressure_sealevel;temperature;humidity
77240;BME280;66258;53.170;-2.240;2023-04-25T00:01:28;100455.44;;;12.13;53.52
77240;BME280;66258;53.170;-2.240;2023-04-25T00:03:56;100456.81;;;12.09;53.79
77240;BME280;66258;53.170;-2.240;2023-04-25T00:06:24;100462.91;;;12.11;53.50
77240;BME280;66258;53.170;-2.240;2023-04-25T00:08:52;100471.91;;;12.12;52.45
77240;BME280;66258;53.170;-2.240;2023-04-25T00:11:19;100464.47;;;11.97;52.21
77240;BME280;66258;53.170;-2.240;2023-04-25T00:13:48;100460.59;;;11.84;51.89
77240;BME280;66258;53.170;-2.240;2023-04-25T00:16:16;100455.16;;;11.76;52.09
77240;BME280;66258;53.170;-2.240;2023-04-25T00:18:44;100461.75;;;11.73;52.69
77240;BME280;66258;53.170;-2.240;2023-04-25T00:21:12;100455.31;;;11.58;52.71
77240;BME280;66258;53.170;-2.240;2023-04-25T00:23:39;100458.38;;;11.55;52.57
77240;BME280;66258;53.170;-2.240;2023-04-25T00:26:06;100458.88;;;11.34;53.03
77240;BME280;66258;53.170;-2.240;2023-04-25T00:28:33;100455.84;;;11.37;53.18
77240;BME280;66258;53.170;-2.240;2023-04-25T00:31:02;100453.94;;;11.29;53.34
77240;BME280;66258;53.170;-2.240;2023-04-25T00:33:30;100441.56;;;11.27;53.92
77240;BME280;66258;53.170;-2.240;2023-04-25T00:35:57;100452.09;;;11.22;54.20
77240;BME280;66258;53.170;-2.240;2023-04-25T00:38:24;100446.31;;;11.09;54.69
77240;BME280;66258;53.170;-2.240;2023-04-25T00:40:51;100443.94;;;10.97;55.07
77240;BME280;66258;53.170;-2.240;2023-04-25T00:43:19;100439.50;;;10.88;55.51
77240;BME280;66258;53.170;-2.240;2023-04-25T00:45:47;100452.34;;;10.78;55.90
77240;BME280;66258;53.170;-2.240;2023-04-25T00:48:17;100449.63;;;10.86;55.65
77240;BME280;66258;53.170;-2.240;2023-04-25T00:50:51;100454.38;;;10.76;56.31
77240;BME280;66258;53.170;-2.240;2023-04-25T00:53:19;100468.75;;;10.77;56.38
77240;BME280;66258;53.170;-2.240;2023-04-25T00:55:47;100458.09;;;10.75;56.50
77240;BME280;66258;53.170;-2.240;2023-04-25T00:58:14;100453.28;;;10.61;57.20
77240;BME280;66258;53.170;-2.240;2023-04-25T01:00:42;100452.38;;;10.44;57.93
77240;BME280;66258;53.170;-2.240;2023-04-25T01:03:11;100452.19;;;10.38;58.07
77240;BME280;66258;53.170;-2.240;2023-04-25T01:05:40;100457.66;;;10.20;58.47
77240;BME280;66258;53.170;-2.240;2023-04-25T01:08:09;100464.16;;;10.09;59.45
77240;BME280;66258;53.170;-2.240;2023-04-25T01:10:36;100462.53;;;10.16;59.83
77240;BME280;66258;53.170;-2.240;2023-04-25T01:13:05;100466.78;;;10.19;59.48
77240;BME280;66258;53.170;-2.240;2023-04-25T01:15:33;100462.53;;;10.16;59.98
77240;BME280;66258;53.170;-2.240;2023-04-25T01:18:00;100472.41;;;10.25;59.50
77240;BME280;66258;53.170;-2.240;2023-04-25T01:20:28;100467.56;;;10.11;60.60
77240;BME280;66258;53.170;-2.240;2023-04-25T01:22:58;100465.72;;;9.86;61.22
77240;BME280;66258;53.170;-2.240;2023-04-25T01:25:27;100470.19;;;9.77;62.33
77240;BME280;66258;53.170;-2.240;2023-04-25T01:27:55;100469.00;;;9.72;63.15
77240;BME280;66258;53.170;-2.240;2023-04-25T01:30:22;100472.59;;;9.80;63.56
77240;BME280;66258;53.170;-2.240;2023-04-25T01:32:50;100468.03;;;9.81;63.73
77240;BME280;66258;53.170;-2.240;2023-04-25T01:35:18;100470.03;;;9.79;63.97
77240;BME280;66258;53.170;-2.240;2023-04-25T01:37:46;100461.06;;;9.78;64.35
77240;BME280;66258;53.170;-2.240;2023-04-25T01:40:16;100470.72;;;9.81;64.56
77240;BME280;66258;53.170;-2.240;2023-04-25T01:42:44;100461.06;;;9.78;64.56
77240;BME280;66258;53.170;-2.240;2023-04-25T01:45:12;100460.03;;;9.71;64.93
77240;BME280;66258;53.170;-2.240;2023-04-25T01:47:40;100452.38;;;9.67;65.13
77240;BME280;66258;53.170;-2.240;2023-04-25T01:50:09;100449.47;;;9.60;65.57
77240;BME280;66258;53.170;-2.240;2023-04-25T01:52:37;100452.00;;;9.61;66.02
77240;BME280;66258;53.170;-2.240;2023-04-25T01:55:06;100459.88;;;9.73;65.91
77240;BME280;66258;53.170;-2.240;2023-04-25T01:57:35;100461.25;;;9.77;65.42
77240;BME280;66258;53.170;-2.240;2023-04-25T02:00:06;100461.63;;;9.82;65.36
77240;BME280;66258;53.170;-2.240;2023-04-25T02:02:35;100456.47;;;9.71;65.82
77240;BME280;66258;53.170;-2.240;2023-04-25T02:05:04;100465.13;;;9.56;66.30
77240;BME280;66258;53.170;-2.240;2023-04-25T02:07:32;100469.31;;;9.69;66.67
77240;BME280;66258;53.170;-2.240;2023-04-25T02:09:59;100473.75;;;9.78;66.27
77240;BME280;66258;53.170;-2.240;2023-04-25T02:12:28;100479.84;;;9.80;65.72
77240;BME280;66258;53.170;-2.240;2023-04-25T02:14:57;100475.59;;;9.77;65.77
77240;BME280;66258;53.170;-2.240;2023-04-25T02:17:25;100480.34;;;9.75;65.75
77240;BME280;66258;53.170;-2.240;2023-04-25T02:19:55;100485.94;;;9.82;65.29
77240;BME280;66258;53.170;-2.240;2023-04-25T02:22:23;100485.59;;;9.77;65.54
77240;BME280;66258;53.170;-2.240;2023-04-25T02:24:51;100479.69;;;9.55;66.79
77240;BME280;66258;53.170;-2.240;2023-04-25T02:27:18;100488.09;;;9.52;67.65
77240;BME280;66258;53.170;-2.240;2023-04-25T02:29:46;100478.91;;;9.45;67.87
77240;BME280;66258;53.170;-2.240;2023-04-25T02:32:17;100470.72;;;9.55;67.85
77240;BME280;66258;53.170;-2.240;2023-04-25T02:34:44;100475.44;;;9.53;67.38
77240;BME280;66258;53.170;-2.240;2023-04-25T02:37:12;100472.41;;;9.38;67.97
77240;BME280;66258;53.170;-2.240;2023-04-25T02:39:39;100476.59;;;9.33;68.69
77240;BME280;66258;53.170;-2.240;2023-04-25T02:42:06;100480.59;;;9.46;67.75
77240;BME280;66258;53.170;-2.240;2023-04-25T02:44:34;100477.13;;;9.36;68.11
77240;BME280;66258;53.170;-2.240;2023-04-25T02:47:01;100477.31;;;9.35;67.94
77240;BME280;66258;53.170;-2.240;2023-04-25T02:49:31;100486.56;;;9.32;68.61
77240;BME280;66258;53.170;-2.240;2023-04-25T02:51:59;100478.66;;;9.21;69.18
77240;BME280;66258;53.170;-2.240;2023-04-25T02:54:26;100481.06;;;9.06;70.26
77240;BME280;66258;53.170;-2.240;2023-04-25T02:56:54;100479.81;;;9.01;70.88
77240;BME280;66258;53.170;-2.240;2023-04-25T02:59:21;100478.75;;;8.93;71.11
77240;BME280;66258;53.170;-2.240;2023-04-25T03:01:49;100483.50;;;8.82;71.81
77240;BME280;66258;53.170;-2.240;2023-04-25T03:04:16;100475.63;;;8.71;72.52
77240;BME280;66258;53.170;-2.240;2023-04-25T03:06:45;100475.78;;;8.69;73.07
77240;BME280;66258;53.170;-2.240;2023-04-25T03:09:13;100481.00;;;8.71;73.46
77240;BME280;66258;53.170;-2.240;2023-04-25T03:11:40;100477.00;;;8.75;73.64
77240;BME280;66258;53.170;-2.240;2023-04-25T03:14:08;100480.88;;;8.72;73.93
77240;BME280;66258;53.170;-2.240;2023-04-25T03:16:35;100468.53;;;8.70;74.02
77240;BME280;66258;53.170;-2.240;2023-04-25T03:19:03;100470.38;;;8.69;74.02
77240;BME280;66258;53.170;-2.240;2023-04-25T03:21:34;100474.06;;;8.68;73.98
77240;BME280;66258;53.170;-2.240;2023-04-25T03:24:05;100481.75;;;8.90;72.79
77240;BME280;66258;53.170;-2.240;2023-04-25T03:26:32;100489.91;;;8.99;71.90
77240;BME280;66258;53.170;-2.240;2023-04-25T03:29:00;100490.63;;;9.01;71.03
77240;BME280;66258;53.170;-2.240;2023-04-25T03:31:28;100501.13;;;9.04;70.47
77240;BME280;66258;53.170;-2.240;2023-04-25T03:33:56;100503.19;;;8.92;70.70
77240;BME280;66258;53.170;-2.240;2023-04-25T03:36:23;100500.41;;;8.84;71.32
77240;BME280;66258;53.170;-2.240;2023-04-25T03:38:51;100504.53;;;8.78;71.88
77240;BME280;66258;53.170;-2.240;2023-04-25T03:41:21;100498.53;;;8.84;71.30
77240;BME280;66258;53.170;-2.240;2023-04-25T03:43:49;100508.34;;;8.85;70.83
77240;BME280;66258;53.170;-2.240;2023-04-25T03:46:17;100509.53;;;8.73;71.20
77240;BME280;66258;53.170;-2.240;2023-04-25T03:48:44;100498.94;;;8.62;72.19
77240;BME280;66258;53.170;-2.240;2023-04-25T03:51:12;100497.97;;;8.53;72.57
77240;BME280;66258;53.170;-2.240;2023-04-25T03:53:39;100513.84;;;8.66;71.20
77240;BME280;66258;53.170;-2.240;2023-04-25T03:56:06;100518.94;;;8.69;71.14
77240;BME280;66258;53.170;-2.240;2023-04-25T03:58:35;100519.03;;;8.50;72.00
77240;BME280;66258;53.170;-2.240;2023-04-25T04:01:02;100523.75;;;8.48;73.19
77240;BME280;66258;53.170;-2.240;2023-04-25T04:03:30;100524.44;;;8.50;72.43
77240;BME280;66258;53.170;-2.240;2023-04-25T04:05:58;100522.06;;;8.37;73.76
77240;BME280;66258;53.170;-2.240;2023-04-25T04:08:26;100517.97;;;8.14;74.59
77240;BME280;66258;53.170;-2.240;2023-04-25T04:10:53;100512.34;;;8.07;75.47
77240;BME280;66258;53.170;-2.240;2023-04-25T04:13:22;100515.75;;;8.09;76.06
77240;BME280;66258;53.170;-2.240;2023-04-25T04:15:51;100514.56;;;8.21;75.86
77240;BME280;66258;53.170;-2.240;2023-04-25T04:18:20;100513.41;;;8.34;74.66
77240;BME280;66258;53.170;-2.240;2023-04-25T04:20:47;100506.44;;;8.31;74.34
77240;BME280;66258;53.170;-2.240;2023-04-25T04:23:15;100502.63;;;8.24;75.30
77240;BME280;66258;53.170;-2.240;2023-04-25T04:25:42;100506.34;;;8.13;75.80
77240;BME280;66258;53.170;-2.240;2023-04-25T04:28:10;100498.97;;;8.15;76.73
77240;BME280;66258;53.170;-2.240;2023-04-25T04:30:38;100495.16;;;8.08;77.11
77240;BME280;66258;53.170;-2.240;2023-04-25T04:33:09;100490.06;;;8.05;77.83
77240;BME280;66258;53.170;-2.240;2023-04-25T04:35:38;100507.28;;;8.32;75.93
77240;BME280;66258;53.170;-2.240;2023-04-25T04:38:06;100509.47;;;8.18;75.76
77240;BME280;66258;53.170;-2.240;2023-04-25T04:40:34;100506.34;;;8.13;76.60
77240;BME280;66258;53.170;-2.240;2023-04-25T04:43:02;100512.06;;;8.10;77.18
77240;BME280;66258;53.170;-2.240;2023-04-25T04:45:30;100502.84;;;7.93;77.63
77240;BME280;66258;53.170;-2.240;2023-04-25T04:47:57;100503.13;;;7.90;78.36
77240;BME280;66258;53.170;-2.240;2023-04-25T04:50:28;100503.44;;;7.87;78.72
77240;BME280;66258;53.170;-2.240;2023-04-25T04:52:56;100515.09;;;7.88;79.03
77240;BME280;66258;53.170;-2.240;2023-04-25T04:55:24;100524.88;;;7.89;79.16
77240;BME280;66258;53.170;-2.240;2023-04-25T04:57:54;100524.13;;;7.97;79.31
77240;BME280;66258;53.170;-2.240;2023-04-25T05:00:22;100527.91;;;8.23;78.05
77240;BME280;66258;53.170;-2.240;2023-04-25T05:02:49;100528.47;;;8.26;77.13
77240;BME280;66258;53.170;-2.240;2023-04-25T05:05:17;100530.88;;;8.20;77.47
77240;BME280;66258;53.170;-2.240;2023-04-25T05:07:46;100531.47;;;8.14;77.87
77240;BME280;66258;53.170;-2.240;2023-04-25T05:10:13;100526.28;;;7.35;83.52
77240;BME280;66258;53.170;-2.240;2023-04-25T05:12:40;100526.28;;;7.35;85.60
77240;BME280;66258;53.170;-2.240;2023-04-25T05:15:09;100530.28;;;7.60;84.83
77240;BME280;66258;53.170;-2.240;2023-04-25T05:17:37;100546.31;;;7.62;83.31
77240;BME280;66258;53.170;-2.240;2023-04-25T05:20:07;100550.13;;;7.59;84.46
77240;BME280;66258;53.170;-2.240;2023-04-25T05:22:35;100551.97;;;7.58;86.35
77240;BME280;66258;53.170;-2.240;2023-04-25T05:25:06;100553.81;;;7.68;87.76
77240;BME280;66258;53.170;-2.240;2023-04-25T05:27:36;100550.56;;;7.64;88.42
77240;BME280;66258;53.170;-2.240;2023-04-25T05:30:05;100549.69;;;7.73;89.53
77240;BME280;66258;53.170;-2.240;2023-04-25T05:32:33;100553.34;;;8.01;90.72
77240;BME280;66258;53.170;-2.240;2023-04-25T05:35:01;100569.91;;;8.45;89.04
77240;BME280;66258;53.170;-2.240;2023-04-25T05:37:28;100576.72;;;8.49;88.95
77240;BME280;66258;53.170;-2.240;2023-04-25T05:39:59;100570.56;;;8.56;89.92
77240;BME280;66258;53.170;-2.240;2023-04-25T05:42:29;100573.66;;;8.61;92.06
77240;BME280;66258;53.170;-2.240;2023-04-25T05:44:57;100576.25;;;8.90;91.63
77240;BME280;66258;53.170;-2.240;2023-04-25T05:47:27;100580.16;;;9.06;91.33
77240;BME280;66258;53.170;-2.240;2023-04-25T05:49:54;100586.84;;;9.29;90.45
77240;BME280;66258;53.170;-2.240;2023-04-25T05:52:22;100593.72;;;9.59;89.48
77240;BME280;66258;53.170;-2.240;2023-04-25T05:54:50;100603.72;;;9.76;87.97
77240;BME280;66258;53.170;-2.240;2023-04-25T05:57:22;100596.34;;;9.86;85.48
77240;BME280;66258;53.170;-2.240;2023-04-25T05:59:52;100601.22;;;10.00;86.07
77240;BME280;66258;53.170;-2.240;2023-04-25T06:02:20;100601.66;;;10.31;85.09
77240;BME280;66258;53.170;-2.240;2023-04-25T06:04:49;100607.25;;;10.56;80.98
77240;BME280;66258;53.170;-2.240;2023-04-25T06:07:18;100608.41;;;10.79;78.48
77240;BME280;66258;53.170;-2.240;2023-04-25T06:09:49;100611.56;;;11.00;77.21
77240;BME280;66258;53.170;-2.240;2023-04-25T06:12:17;100607.38;;;11.22;76.35
77240;BME280;66258;53.170;-2.240;2023-04-25T06:14:45;100609.03;;;11.57;75.56
77240;BME280;66258;53.170;-2.240;2023-04-25T06:17:16;100609.78;;;11.92;73.78
77240;BME280;66258;53.170;-2.240;2023-04-25T06:19:44;100613.53;;;12.15;71.81
77240;BME280;66258;53.170;-2.240;2023-04-25T06:22:12;100616.22;;;12.64;69.67
77240;BME280;66258;53.170;-2.240;2023-04-25T06:24:41;100620.38;;;12.99;67.74
77240;BME280;66258;53.170;-2.240;2023-04-25T06:27:09;100618.47;;;13.07;66.02
77240;BME280;66258;53.170;-2.240;2023-04-25T06:29:36;100619.41;;;13.31;64.52
77240;BME280;66258;53.170;-2.240;2023-04-25T06:32:05;100630.91;;;13.49;62.78
77240;BME280;66258;53.170;-2.240;2023-04-25T06:34:34;100632.63;;;13.96;58.17
77240;BME280;66258;53.170;-2.240;2023-04-25T06:37:02;100633.09;;;13.76;57.43
77240;BME280;66258;53.170;-2.240;2023-04-25T06:39:29;100644.00;;;13.99;57.97
77240;BME280;66258;53.170;-2.240;2023-04-25T06:41:58;100649.75;;;15.02;54.78
77240;BME280;66258;53.170;-2.240;2023-04-25T06:44:25;100647.63;;;15.63;51.08
77240;BME280;66258;53.170;-2.240;2023-04-25T06:46:53;100655.91;;;16.27;48.04
77240;BME280;66258;53.170;-2.240;2023-04-25T06:49:20;100663.50;;;17.02;46.18
77240;BME280;66258;53.170;-2.240;2023-04-25T06:51:49;100668.47;;;17.27;45.54
77240;BME280;66258;53.170;-2.240;2023-04-25T06:54:17;100662.78;;;17.28;44.88
77240;BME280;66258;53.170;-2.240;2023-04-25T06:56:44;100669.53;;;17.67;43.15
77240;BME280;66258;53.170;-2.240;2023-04-25T06:59:12;100670.84;;;17.77;41.04
77240;BME280;66258;53.170;-2.240;2023-04-25T07:01:39;100673.66;;;17.49;41.72
77240;BME280;66258;53.170;-2.240;2023-04-25T07:04:07;100674.03;;;17.81;42.08
77240;BME280;66258;53.170;-2.240;2023-04-25T07:06:35;100673.88;;;18.09;39.93
77240;BME280;66258;53.170;-2.240;2023-04-25T07:09:04;100681.19;;;18.63;39.78
77240;BME280;66258;53.170;-2.240;2023-04-25T07:11:31;100684.75;;;19.03;39.74
77240;BME280;66258;53.170;-2.240;2023-04-25T07:13:59;100687.25;;;19.31;37.30
77240;BME280;66258;53.170;-2.240;2023-04-25T07:16:26;100682.13;;;19.34;36.85
77240;BME280;66258;53.170;-2.240;2023-04-25T07:18:54;100703.31;;;19.07;35.52
77240;BME280;66258;53.170;-2.240;2023-04-25T07:21:23;100697.41;;;19.04;34.74
77240;BME280;66258;53.170;-2.240;2023-04-25T07:23:53;100700.38;;;18.89;36.89
77240;BME280;66258;53.170;-2.240;2023-04-25T07:26:23;100705.78;;;19.48;35.06
77240;BME280;66258;53.170;-2.240;2023-04-25T07:28:51;100708.38;;;19.23;33.81
77240;BME280;66258;53.170;-2.240;2023-04-25T07:31:18;100709.19;;;19.17;35.65
77240;BME280;66258;53.170;-2.240;2023-04-25T07:33:46;100710.84;;;19.45;35.13
77240;BME280;66258;53.170;-2.240;2023-04-25T07:36:13;100712.22;;;19.80;34.80
77240;BME280;66258;53.170;-2.240;2023-04-25T07:38:41;100718.00;;;20.80;34.29
77240;BME280;66258;53.170;-2.240;2023-04-25T07:41:09;100714.75;;;20.65;32.40
77240;BME280;66258;53.170;-2.240;2023-04-25T07:43:38;100717.34;;;19.70;34.28
77240;BME280;66258;53.170;-2.240;2023-04-25T07:46:05;100730.19;;;20.28;33.48
77240;BME280;66258;53.170;-2.240;2023-04-25T07:48:33;100725.75;;;20.27;31.91
77240;BME280;66258;53.170;-2.240;2023-04-25T07:51:00;100727.50;;;19.70;32.87
77240;BME280;66258;53.170;-2.240;2023-04-25T07:53:28;100728.41;;;19.24;33.15
77240;BME280;66258;53.170;-2.240;2023-04-25T07:55:56;100726.31;;;19.06;34.31
77240;BME280;66258;53.170;-2.240;2023-04-25T07:58:24;100733.47;;;19.53;34.78
77240;BME280;66258;53.170;-2.240;2023-04-25T08:00:53;100729.91;;;19.07;33.68
77240;BME280;66258;53.170;-2.240;2023-04-25T08:03:20;100720.50;;;18.15;38.25
77240;BME280;66258;53.170;-2.240;2023-04-25T08:05:54;100720.00;;;18.66;38.85
77240;BME280;66258;53.170;-2.240;2023-04-25T08:08:21;100724.81;;;19.30;35.68
77240;BME280;66258;53.170;-2.240;2023-04-25T08:10:48;100725.22;;;19.40;35.60
77240;BME280;66258;53.170;-2.240;2023-04-25T08:13:16;100725.66;;;19.50;35.92
77240;BME280;66258;53.170;-2.240;2023-04-25T08:15:44;100723.22;;;19.80;34.57
77240;BME280;66258;53.170;-2.240;2023-04-25T08:18:14;100723.28;;;19.74;35.69
77240;BME280;66258;53.170;-2.240;2023-04-25T08:20:43;100722.63;;;19.72;34.44
77240;BME280;66258;53.170;-2.240;2023-04-25T08:23:12;100726.78;;;20.32;32.65
77240;BME280;66258;53.170;-2.240;2023-04-25T08:25:40;100735.28;;;20.24;34.24
77240;BME280;66258;53.170;-2.240;2023-04-25T08:28:08;100726.28;;;20.04;34.37
77240;BME280;66258;53.170;-2.240;2023-04-25T08:30:37;100733.25;;;20.06;33.60
77240;BME280;66258;53.170;-2.240;2023-04-25T08:33:04;100738.34;;;20.03;34.39
77240;BME280;66258;53.170;-2.240;2023-04-25T08:35:33;100742.34;;;20.51;34.16
77240;BME280;66258;53.170;-2.240;2023-04-25T08:38:00;100745.84;;;20.97;33.00
77240;BME280;66258;53.170;-2.240;2023-04-25T08:40:28;100739.44;;;21.27;31.94
77240;BME280;66258;53.170;-2.240;2023-04-25T08:42:57;100742.78;;;21.30;29.78
77240;BME280;66258;53.170;-2.240;2023-04-25T08:45:27;100740.16;;;20.91;30.83
77240;BME280;66258;53.170;-2.240;2023-04-25T08:47:57;100756.16;;;20.76;32.70
77240;BME280;66258;53.170;-2.240;2023-04-25T08:50:25;100749.53;;;21.34;31.63
77240;BME280;66258;53.170;-2.240;2023-04-25T08:52:58;100758.00;;;21.57;30.82
77240;BME280;66258;53.170;-2.240;2023-04-25T08:55:27;100755.38;;;21.62;31.20
77240;BME280;66258;53.170;-2.240;2023-04-25T08:57:56;100758.84;;;22.12;29.34
77240;BME280;66258;53.170;-2.240;2023-04-25T09:00:25;100756.75;;;22.26;30.41
77240;BME280;66258;53.170;-2.240;2023-04-25T09:02:54;100761.38;;;22.74;27.58
77240;BME280;66258;53.170;-2.240;2023-04-25T09:05:23;100757.22;;;21.68;28.16
77240;BME280;66258;53.170;-2.240;2023-04-25T09:07:50;100753.91;;;20.60;28.45
77240;BME280;66258;53.170;-2.240;2023-04-25T09:10:20;100754.00;;;20.47;30.98
77240;BME280;66258;53.170;-2.240;2023-04-25T09:13:02;100759.91;;;20.50;31.16
77240;BME280;66258;53.170;-2.240;2023-04-25T09:15:30;100750.81;;;21.06;32.67
77240;BME280;66258;53.170;-2.240;2023-04-25T09:17:58;100755.38;;;21.19;30.03
77240;BME280;66258;53.170;-2.240;2023-04-25T09:20:26;100759.59;;;21.65;28.20
77240;BME280;66258;53.170;-2.240;2023-04-25T09:23:03;100760.97;;;21.55;28.43
77240;BME280;66258;53.170;-2.240;2023-04-25T09:25:35;100759.31;;;21.73;26.68
77240;BME280;66258;53.170;-2.240;2023-04-25T09:28:04;100760.72;;;21.14;30.97
77240;BME280;66258;53.170;-2.240;2023-04-25T09:30:35;100761.81;;;21.92;28.15
77240;BME280;66258;53.170;-2.240;2023-04-25T09:33:07;100761.19;;;22.27;29.04
77240;BME280;66258;53.170;-2.240;2023-04-25T09:35:39;100758.56;;;22.92;26.41
77240;BME280;66258;53.170;-2.240;2023-04-25T09:38:10;100770.56;;;22.86;25.99
77240;BME280;66258;53.170;-2.240;2023-04-25T09:40:44;100753.09;;;21.95;29.16
77240;BME280;66258;53.170;-2.240;2023-04-25T09:43:19;100761.53;;;22.19;27.61
77240;BME280;66258;53.170;-2.240;2023-04-25T09:45:47;100766.28;;;22.12;24.35
77240;BME280;66258;53.170;-2.240;2023-04-25T09:48:18;100760.19;;;20.74;26.39
77240;BME280;66258;53.170;-2.240;2023-04-25T09:50:45;100760.94;;;20.56;28.76
77240;BME280;66258;53.170;-2.240;2023-04-25T09:53:15;100759.66;;;20.14;29.29
77240;BME280;66258;53.170;-2.240;2023-04-25T09:55:45;100760.47;;;20.21;29.70
77240;BME280;66258;53.170;-2.240;2023-04-25T10:00:41;100761.59;;;21.76;27.10
77240;BME280;66258;53.170;-2.240;2023-04-25T10:03:11;100763.97;;;20.41;29.38
77240;BME280;66258;53.170;-2.240;2023-04-25T10:05:41;100757.34;;;20.11;29.47
77240;BME280;66258;53.170;-2.240;2023-04-25T10:08:11;100767.06;;;20.13;29.19
77240;BME280;66258;53.170;-2.240;2023-04-25T10:10:40;100767.78;;;20.40;29.72
77240;BME280;66258;53.170;-2.240;2023-04-25T10:13:11;100764.44;;;20.32;29.35
77240;BME280;66258;53.170;-2.240;2023-04-25T10:15:39;100761.19;;;21.04;26.78
77240;BME280;66258;53.170;-2.240;2023-04-25T10:18:06;100764.31;;;21.14;29.16
77240;BME280;66258;53.170;-2.240;2023-04-25T10:20:35;100757.38;;;19.98;31.12
77240;BME280;66258;53.170;-2.240;2023-04-25T10:23:08;100760.16;;;20.42;30.33
77240;BME280;66258;53.170;-2.240;2023-04-25T10:25:38;100765.25;;;21.51;28.01
77240;BME280;66258;53.170;-2.240;2023-04-25T10:28:06;100774.59;;;21.87;28.08
77240;BME280;66258;53.170;-2.240;2023-04-25T10:30:36;100775.22;;;22.07;27.81
77240;BME280;66258;53.170;-2.240;2023-04-25T10:33:16;100778.06;;;22.49;26.48
77240;BME280;66258;53.170;-2.240;2023-04-25T10:35:45;100779.94;;;22.85;25.90
77240;BME280;66258;53.170;-2.240;2023-04-25T10:38:14;100775.19;;;23.39;25.71
77240;BME280;66258;53.170;-2.240;2023-04-25T10:41:03;100773.41;;;23.79;26.70
77240;BME280;66258;53.170;-2.240;2023-04-25T10:43:37;100778.66;;;23.92;25.72
77240;BME280;66258;53.170;-2.240;2023-04-25T10:46:22;100763.34;;;22.55;26.41
77240;BME280;66258;53.170;-2.240;2023-04-25T10:48:52;100756.53;;;20.80;27.32
77240;BME280;66258;53.170;-2.240;2023-04-25T10:51:23;100756.06;;;19.36;30.69
77240;BME280;66258;53.170;-2.240;2023-04-25T10:53:58;100743.38;;;20.12;28.67
77240;BME280;66258;53.170;-2.240;2023-04-25T10:56:26;100752.81;;;20.68;27.89
77240;BME280;66258;53.170;-2.240;2023-04-25T10:59:08;100740.69;;;19.99;28.87
77240;BME280;66258;53.170;-2.240;2023-04-25T11:01:43;100736.22;;;19.53;30.65
77240;BME280;66258;53.170;-2.240;2023-04-25T11:04:22;100737.13;;;20.75;30.27
77240;BME280;66258;53.170;-2.240;2023-04-25T11:07:00;100739.94;;;20.93;28.34
77240;BME280;66258;53.170;-2.240;2023-04-25T11:09:33;100734.78;;;19.96;28.98
77240;BME280;66258;53.170;-2.240;2023-04-25T11:12:01;100737.03;;;19.41;30.26
77240;BME280;66258;53.170;-2.240;2023-04-25T11:14:29;100732.22;;;19.16;29.91
77240;BME280;66258;53.170;-2.240;2023-04-25T11:16:59;100730.97;;;18.99;30.36
77240;BME280;66258;53.170;-2.240;2023-04-25T11:19:27;100729.44;;;19.43;32.07
77240;BME280;66258;53.170;-2.240;2023-04-25T11:21:55;100731.78;;;20.04;29.02
77240;BME280;66258;53.170;-2.240;2023-04-25T11:24:26;100729.38;;;20.90;29.32
77240;BME280;66258;53.170;-2.240;2023-04-25T11:26:54;100731.75;;;21.54;29.38
77240;BME280;66258;53.170;-2.240;2023-04-25T11:29:23;100724.09;;;22.41;28.62
77240;BME280;66258;53.170;-2.240;2023-04-25T11:31:52;100730.75;;;22.63;26.21
77240;BME280;66258;53.170;-2.240;2023-04-25T11:34:21;100721.56;;;21.73;26.94
77240;BME280;66258;53.170;-2.240;2023-04-25T11:36:49;100722.44;;;20.56;26.75
77240;BME280;66258;53.170;-2.240;2023-04-25T11:39:16;100724.63;;;19.96;28.63
77240;BME280;66258;53.170;-2.240;2023-04-25T11:41:46;100728.28;;;19.83;27.62
77240;BME280;66258;53.170;-2.240;2023-04-25T11:44:16;100723.31;;;19.47;28.97
77240;BME280;66258;53.170;-2.240;2023-04-25T11:46:44;100714.47;;;19.12;28.29
77240;BME280;66258;53.170;-2.240;2023-04-25T11:49:12;100714.50;;;18.73;28.85
77240;BME280;66258;53.170;-2.240;2023-04-25T11:51:43;100711.34;;;18.63;28.55
77240;BME280;66258;53.170;-2.240;2023-04-25T11:54:11;100713.25;;;19.02;30.71
77240;BME280;66258;53.170;-2.240;2023-04-25T11:56:41;100715.69;;;20.14;28.25
77240;BME280;66258;53.170;-2.240;2023-04-25T11:59:09;100718.50;;;22.00;27.98
77240;BME280;66258;53.170;-2.240;2023-04-25T12:01:38;100726.91;;;23.41;25.34
77240;BME280;66258;53.170;-2.240;2023-04-25T12:04:14;100724.34;;;23.75;25.66
77240;BME280;66258;53.170;-2.240;2023-04-25T12:06:46;100726.78;;;24.51;23.81
77240;BME280;66258;53.170;-2.240;2023-04-25T12:09:16;100729.13;;;23.91;23.60
77240;BME280;66258;53.170;-2.240;2023-04-25T12:11:46;100722.94;;;23.02;24.82
77240;BME280;66258;53.170;-2.240;2023-04-25T12:14:21;100720.38;;;22.47;25.28
77240;BME280;66258;53.170;-2.240;2023-04-25T12:16:49;100712.75;;;21.46;25.58
77240;BME280;66258;53.170;-2.240;2023-04-25T12:19:18;100711.09;;;20.71;27.70
77240;BME280;66258;53.170;-2.240;2023-04-25T12:21:48;100707.50;;;20.39;26.95
77240;BME280;66258;53.170;-2.240;2023-04-25T12:24:26;100707.28;;;20.02;27.53
77240;BME280;66258;53.170;-2.240;2023-04-25T12:27:00;100700.44;;;19.73;26.07
77240;BME280;66258;53.170;-2.240;2023-04-25T12:29:31;100702.59;;;19.58;27.29
77240;BME280;66258;53.170;-2.240;2023-04-25T12:32:14;100702.53;;;19.78;26.51
77240;BME280;66258;53.170;-2.240;2023-04-25T12:34:43;100708.38;;;20.33;26.73
77240;BME280;66258;53.170;-2.240;2023-04-25T12:37:13;100699.13;;;20.58;25.84
77240;BME280;66258;53.170;-2.240;2023-04-25T12:39:41;100708.53;;;21.44;26.42
77240;BME280;66258;53.170;-2.240;2023-04-25T12:42:09;100706.78;;;21.49;24.64
77240;BME280;66258;53.170;-2.240;2023-04-25T12:44:37;100700.25;;;21.25;24.88
77240;BME280;66258;53.170;-2.240;2023-04-25T12:47:05;100710.97;;;20.59;27.79
77240;BME280;66258;53.170;-2.240;2023-04-25T12:49:33;100702.56;;;21.04;27.69
77240;BME280;66258;53.170;-2.240;2023-04-25T12:52:01;100708.56;;;21.19;26.77
77240;BME280;66258;53.170;-2.240;2023-04-25T12:54:31;100710.88;;;20.72;26.32